Waterloo, Canada
Current Conditions -  °F | °C
As of 1:00 AM on Wednesday 26 Nov 2014 (Local Time) from CYKF Reporting Station
Overcast Overcast  
Wind Chill: 23°   Ceiling: 2600
Heat Index: 30°   Visibility: 9mi
Dew Point: 25°   Wind: 7mph
Humidity: 80%   Direction: 230°SW
Pressure: 30.16"   Gusts: NA
Location:  43.46°N, 80.52°W
Report Text: CYKF 260600Z AUTO 23006KT 9SM OVC026 M01/M04 A3016 RMK SLP227
Loading
Personal Weather Stations






























Interactive Weather Map New forecast layout! Learn more

10-Day Weather Forecast

Advertisements
Track Severe Weather on mobile